Huvudsida
METAR-TAF:

METAR-TAF

Flygplatser :

Koror, Babeldaob, Palau

latitud: 07-22N, longitud: 134-32E, höjd: 54 m

Aktuellt väderrapport

Denna rapport gjordes för 1 timme och 4 minuter sedan, klockan 07:50 UTC
Vind 5 kt från nordost
Temperatur 30°C
Fuktighet 66%
Tryck 1007 hPa
Sikt: 24.1 km
Spridda moln på en höjd av 1600 ft, Högtornande cumulus.
Spridda moln på en höjd av 12000 ft
Brutna moln på en höjd av 30000 ft

METAR: PTRO 250750Z 04005KT 15SM SCT016TCU SCT120 BKN300 30/23 A2973 RMK TCU E-SE AND SW-W

Tid: 17:54 (08:54 UTC)

Väderprognos

Denna rapport gjordes för 3 timmar och 27 minuter sedan, klockan 05:27 UTC
Prognos gäller från 25 kl. 06 UTC till 26 kl. 06 UTC
Vind 6 kt varierande vindriktning
Sikt: 10 km
Spridda moln på en höjd av 1600 ft
skurar i närheten

TAF: PTRO 250527Z 2506/2606 VRB06KT P6SM VCSH SCT016

Aktuella väderrapporter och prognoser från 4000 flygplatser (METAR- och TAF-rapporter).

De tillgängliga stationerna syns som gula och röda prickar på kartan.

För musen över prickarna för att se namnen på stationerna.

Klicka sedan för att få väderrapporter och prognoser.

För att ändra kartan: Klicka på de gröna knapparna med ett svart kors på för att zooma in; den gröna knappen med ett streck på för att zooma ut; eller på de gröna pilarna för angränsande kartor.


METAR-TAF: